createdAt,value
2023-02-23T00:03:07.319Z,7.31
2023-02-23T00:08:12.259Z,7.33
2023-02-23T00:13:17.075Z,7.34
2023-02-23T00:18:24.530Z,7.30
2023-02-23T00:23:30.097Z,7.33
2023-02-23T00:28:35.144Z,7.28
2023-02-23T00:33:43.849Z,7.12
2023-02-23T00:38:48.947Z,7.07
2023-02-23T00:43:55.175Z,7.26
2023-02-23T00:49:05.221Z,7.06
2023-02-23T00:54:10.965Z,7.12
2023-02-23T00:59:16.311Z,7.12
2023-02-23T01:04:23.786Z,7.02
2023-02-23T01:09:30.785Z,6.97
2023-02-23T01:14:36.105Z,7.08
2023-02-23T01:19:47.824Z,7.11
2023-02-23T01:24:52.870Z,7.12
2023-02-23T01:29:57.757Z,7.05
2023-02-23T01:35:05.692Z,7.12
2023-02-23T01:40:15.874Z,7.21
2023-02-23T01:45:27.243Z,7.12
2023-02-23T01:50:41.907Z,7.17
2023-02-23T01:55:49.919Z,7.06
2023-02-23T02:00:57.932Z,7.13
2023-02-23T02:06:09.916Z,7.00
2023-02-23T02:11:26.269Z,7.04
2023-02-23T02:17:03.705Z,7.08
2023-02-23T02:22:26.626Z,7.12
2023-02-23T02:27:50.449Z,7.05
2023-02-23T02:33:38.004Z,7.01
2023-02-23T02:38:56.660Z,7.05
2023-02-23T02:44:10.240Z,7.16
2023-02-23T02:49:22.973Z,7.13
2023-02-23T02:54:37.034Z,7.10
2023-02-23T03:00:02.875Z,7.15
2023-02-23T03:05:29.263Z,7.28
2023-02-23T03:10:57.143Z,7.28
2023-02-23T03:16:23.955Z,7.23
2023-02-23T03:21:47.141Z,7.22
2023-02-23T03:27:11.182Z,7.05
2023-02-23T03:32:34.133Z,6.98
2023-02-23T03:37:57.697Z,6.95
2023-02-23T03:43:21.050Z,6.98
2023-02-23T03:48:40.399Z,7.01
2023-02-23T03:54:05.749Z,7.06
2023-02-23T03:59:27.566Z,7.02
2023-02-23T04:04:46.787Z,7.05
2023-02-23T04:10:04.693Z,6.99
2023-02-23T04:15:15.255Z,6.94
2023-02-23T04:20:20.190Z,6.95
2023-02-23T04:25:26.925Z,6.99
2023-02-23T04:30:34.714Z,7.04
2023-02-23T04:35:40.242Z,7.07
2023-02-23T04:40:45.413Z,7.10
2023-02-23T04:45:53.111Z,7.14
2023-02-23T04:50:58.170Z,7.22
2023-02-23T04:56:03.007Z,7.08
2023-02-23T05:01:12.438Z,7.07
2023-02-23T05:06:17.372Z,7.06
2023-02-23T05:11:22.307Z,7.10
2023-02-23T05:16:29.819Z,7.07
2023-02-23T05:21:34.841Z,7.05
2023-02-23T05:26:40.051Z,7.02
2023-02-23T05:31:48.638Z,7.02
2023-02-23T05:36:54.296Z,7.00
2023-02-23T05:41:59.214Z,6.95
2023-02-23T05:47:06.982Z,6.95
2023-02-23T05:52:12.004Z,7.01
2023-02-23T05:57:17.105Z,6.99
2023-02-23T06:02:24.606Z,6.88
2023-02-23T06:07:29.655Z,6.85
2023-02-23T06:12:34.595Z,6.83
2023-02-23T06:17:42.094Z,6.77
2023-02-23T06:22:48.251Z,6.77
2023-02-23T06:27:53.744Z,6.71
2023-02-23T06:33:01.322Z,6.73
2023-02-23T06:38:07.494Z,6.66
2023-02-23T06:43:12.675Z,6.65
2023-02-23T06:48:20.397Z,6.65
2023-02-23T06:53:28.972Z,6.80
2023-02-23T06:58:34.026Z,6.88
2023-02-23T07:03:44.600Z,7.01
2023-02-23T07:08:51.313Z,6.99
2023-02-23T07:13:56.368Z,7.11
2023-02-23T07:19:03.922Z,7.22
2023-02-23T07:24:09.402Z,7.29
2023-02-23T07:29:16.313Z,7.46
2023-02-23T07:34:23.888Z,7.47
2023-02-23T07:39:29.049Z,7.46
2023-02-23T07:44:34.400Z,7.58
2023-02-23T07:49:42.602Z,7.75
2023-02-23T07:54:47.792Z,7.73
2023-02-23T07:59:55.861Z,7.80
2023-02-23T08:05:03.413Z,8.04
2023-02-23T08:10:10.788Z,8.10
2023-02-23T08:15:15.700Z,8.18
2023-02-23T08:20:23.374Z,8.37
2023-02-23T08:25:29.350Z,8.74
2023-02-23T08:30:34.448Z,9.35
2023-02-23T08:35:42.147Z,9.18
2023-02-23T08:40:47.036Z,9.48
2023-02-23T08:45:52.006Z,10.22
2023-02-23T08:51:03.746Z,10.43
2023-02-23T08:56:10.884Z,10.27
2023-02-23T09:01:22.186Z,10.76
2023-02-23T09:06:35.869Z,10.69
2023-02-23T09:11:41.630Z,10.53
2023-02-23T09:16:47.414Z,10.45
2023-02-23T09:21:56.602Z,10.50
2023-02-23T09:27:01.547Z,10.46
2023-02-23T09:32:08.571Z,10.39
2023-02-23T09:37:19.467Z,10.50
2023-02-23T09:42:41.185Z,10.70
2023-02-23T09:48:04.637Z,10.66
2023-02-23T09:53:43.129Z,10.74
2023-02-23T09:58:48.485Z,10.66
2023-02-23T10:03:58.328Z,10.92
2023-02-23T10:09:19.627Z,11.08
2023-02-23T10:14:43.008Z,11.07
2023-02-23T10:19:56.736Z,11.38
2023-02-23T10:25:12.494Z,12.66
2023-02-23T10:30:22.390Z,13.43
2023-02-23T10:35:29.832Z,14.00
2023-02-23T10:40:39.904Z,13.72
2023-02-23T10:45:49.642Z,13.75
2023-02-23T10:51:00.361Z,13.42
2023-02-23T10:56:13.742Z,13.14
2023-02-23T11:01:22.976Z,13.26
2023-02-23T11:06:34.149Z,13.26
2023-02-23T11:11:42.014Z,13.35
2023-02-23T11:16:49.665Z,13.77
2023-02-23T11:21:56.189Z,13.11
2023-02-23T11:27:06.884Z,14.24
2023-02-23T11:32:16.526Z,14.24
2023-02-23T11:37:30.051Z,13.54
2023-02-23T11:42:37.774Z,14.15
2023-02-23T11:47:44.543Z,13.89
2023-02-23T11:52:49.798Z,14.28
2023-02-23T11:58:11.891Z,14.96
2023-02-23T12:03:26.112Z,15.34
2023-02-23T12:08:48.961Z,15.62
2023-02-23T12:14:06.022Z,15.55
2023-02-23T12:19:26.308Z,14.49
2023-02-23T12:24:47.688Z,14.85
2023-02-23T12:30:09.156Z,14.18
2023-02-23T12:35:20.413Z,14.88
2023-02-23T12:40:30.279Z,14.22
2023-02-23T12:45:45.131Z,14.87
2023-02-23T12:50:56.377Z,14.96
2023-02-23T12:56:15.653Z,14.85
2023-02-23T13:01:27.222Z,14.38
2023-02-23T13:06:42.887Z,14.49
2023-02-23T13:12:24.497Z,15.03
2023-02-23T13:17:40.122Z,14.55
2023-02-23T13:22:52.368Z,14.58
2023-02-23T13:28:02.910Z,14.84
2023-02-23T13:33:22.132Z,15.19
2023-02-23T13:38:37.193Z,14.67
2023-02-23T13:43:52.654Z,15.17
2023-02-23T13:49:05.594Z,15.27
2023-02-23T13:54:27.858Z,15.01
2023-02-23T13:59:36.815Z,14.75
2023-02-23T14:04:46.345Z,14.64
2023-02-23T14:09:57.497Z,14.87
2023-02-23T14:15:43.043Z,14.28
2023-02-23T14:21:01.314Z,14.30
2023-02-23T14:26:40.168Z,14.38
2023-02-23T14:31:58.239Z,14.04
2023-02-23T14:37:32.592Z,14.05
2023-02-23T14:42:43.486Z,13.83
2023-02-23T14:47:53.946Z,14.18
2023-02-23T14:53:04.982Z,13.75
2023-02-23T14:58:25.619Z,14.19
2023-02-23T15:03:30.724Z,13.73
2023-02-23T15:08:43.317Z,13.45
2023-02-23T15:13:52.774Z,13.38
2023-02-23T15:19:02.442Z,12.98
2023-02-23T15:24:16.656Z,12.89
2023-02-23T15:29:23.942Z,12.47
2023-02-23T15:34:32.345Z,12.42
2023-02-23T15:39:46.516Z,12.74
2023-02-23T15:45:02.667Z,12.80
2023-02-23T15:50:20.126Z,12.22
2023-02-23T15:55:39.561Z,12.07
2023-02-23T16:00:49.398Z,11.94
2023-02-23T16:06:01.740Z,12.37
2023-02-23T16:11:14.044Z,12.33
2023-02-23T16:16:25.614Z,12.47
2023-02-23T16:21:34.863Z,12.47
2023-02-23T16:26:50.487Z,12.63
2023-02-23T16:32:00.422Z,12.44
2023-02-23T16:37:07.481Z,12.03
2023-02-23T16:42:25.554Z,12.14
2023-02-23T16:47:39.088Z,11.77
2023-02-23T16:52:46.121Z,11.64
2023-02-23T16:57:55.001Z,11.48
2023-02-23T17:03:05.677Z,11.21
2023-02-23T17:08:10.643Z,11.19
2023-02-23T17:13:22.066Z,11.41
2023-02-23T17:18:28.893Z,11.42
2023-02-23T17:23:48.251Z,11.40
2023-02-23T17:28:56.736Z,11.39
2023-02-23T17:34:02.004Z,11.53
2023-02-23T17:39:09.584Z,11.42
2023-02-23T17:44:17.156Z,11.42
2023-02-23T17:49:22.042Z,11.28
2023-02-23T17:54:26.950Z,11.32
2023-02-23T17:59:34.445Z,11.29
2023-02-23T18:04:39.271Z,11.28
2023-02-23T18:09:44.572Z,11.17
2023-02-23T18:14:52.229Z,11.53
2023-02-23T18:19:57.210Z,11.41
2023-02-23T18:25:05.752Z,11.60
2023-02-23T18:30:17.261Z,11.63
2023-02-23T18:35:22.223Z,11.72
2023-02-23T18:40:27.468Z,11.65
2023-02-23T18:45:36.821Z,11.46
2023-02-23T18:50:41.800Z,11.11
2023-02-23T18:55:47.355Z,10.79
2023-02-23T19:00:55.223Z,10.77
2023-02-23T19:06:01.061Z,10.74
2023-02-23T19:11:06.167Z,10.76
2023-02-23T19:16:14.838Z,10.76
2023-02-23T19:21:24.505Z,10.90
2023-02-23T19:26:36.370Z,11.10
2023-02-23T19:31:47.811Z,11.14
2023-02-23T19:36:52.995Z,11.25
2023-02-23T19:41:58.246Z,11.34
2023-02-23T19:47:06.678Z,11.22
2023-02-23T19:52:14.467Z,11.31
2023-02-23T19:57:21.121Z,11.18
2023-02-23T20:02:29.261Z,11.29
2023-02-23T20:07:34.411Z,11.16
2023-02-23T20:12:40.011Z,10.93
2023-02-23T20:17:47.711Z,11.23
2023-02-23T20:22:55.821Z,10.92
2023-02-23T20:28:01.519Z,11.10
2023-02-23T20:33:10.897Z,11.15
2023-02-23T20:38:16.396Z,10.81
2023-02-23T20:43:22.573Z,10.75
2023-02-23T20:48:32.823Z,10.64
2023-02-23T20:53:38.459Z,10.60
2023-02-23T20:58:43.937Z,10.66
2023-02-23T21:03:52.510Z,10.47
2023-02-23T21:09:03.975Z,10.30
2023-02-23T21:14:09.043Z,10.47
2023-02-23T21:19:17.891Z,10.29
2023-02-23T21:24:23.043Z,10.15
2023-02-23T21:29:28.144Z,10.18
2023-02-23T21:34:36.043Z,10.19
2023-02-23T21:39:40.991Z,10.25
2023-02-23T21:44:46.634Z,10.05
2023-02-23T21:49:54.449Z,9.81
2023-02-23T21:55:01.110Z,9.95
2023-02-23T22:00:09.665Z,9.82
2023-02-23T22:05:22.279Z,9.66
2023-02-23T22:10:28.045Z,9.75
2023-02-23T22:15:34.044Z,9.69
2023-02-23T22:20:44.377Z,9.94
2023-02-23T22:25:49.478Z,9.81
2023-02-23T22:30:55.444Z,9.92
2023-02-23T22:36:04.451Z,9.74
2023-02-23T22:41:10.356Z,9.61
2023-02-23T22:46:17.081Z,9.53
2023-02-23T22:51:24.686Z,9.58
2023-02-23T22:56:29.754Z,9.77
2023-02-23T23:01:35.973Z,9.83
2023-02-23T23:06:46.364Z,9.78
2023-02-23T23:11:51.859Z,9.88
2023-02-23T23:16:57.079Z,9.85
2023-02-23T23:22:04.976Z,9.62
2023-02-23T23:27:11.904Z,9.70
2023-02-23T23:32:18.768Z,9.36
2023-02-23T23:37:29.187Z,9.35
2023-02-23T23:42:34.945Z,9.45
2023-02-23T23:47:39.936Z,9.57
2023-02-23T23:52:50.553Z,9.24
2023-02-23T23:57:55.568Z,9.00
